sensor_id;sensor_type;location;lat;lon;timestamp;pressure;altitude;pressure_sealevel;temperature;humidity
75697;BME280;64312;44.738;20.612;2023-02-28T00:02:03;101161.16;;;2.57;76.71
75697;BME280;64312;44.738;20.612;2023-02-28T00:04:29;101128.75;;;2.30;76.21
75697;BME280;64312;44.738;20.612;2023-02-28T00:06:54;101064.72;;;1.88;75.75
75697;BME280;64312;44.738;20.612;2023-02-28T00:09:20;101201.78;;;2.59;76.40
75697;BME280;64312;44.738;20.612;2023-02-28T00:11:45;101244.34;;;2.93;76.28
75697;BME280;64312;44.738;20.612;2023-02-28T00:14:11;101186.53;;;2.61;76.38
75697;BME280;64312;44.738;20.612;2023-02-28T00:16:36;101164.88;;;2.32;75.73
75697;BME280;64312;44.738;20.612;2023-02-28T00:19:02;101189.53;;;2.57;76.38
75697;BME280;64312;44.738;20.612;2023-02-28T00:21:28;101241.44;;;2.85;76.37
75697;BME280;64312;44.738;20.612;2023-02-28T00:23:53;101151.69;;;2.31;76.58
75697;BME280;64312;44.738;20.612;2023-02-28T00:26:19;101276.63;;;2.99;76.09
75697;BME280;64312;44.738;20.612;2023-02-28T00:28:45;101184.25;;;2.46;76.27
75697;BME280;64312;44.738;20.612;2023-02-28T00:31:11;101175.66;;;2.42;76.07
75697;BME280;64312;44.738;20.612;2023-02-28T00:33:36;101023.13;;;1.53;76.13
75697;BME280;64312;44.738;20.612;2023-02-28T00:36:04;101261.50;;;3.00;76.14
75697;BME280;64312;44.738;20.612;2023-02-28T00:38:30;101257.16;;;2.99;76.18
75697;BME280;64312;44.738;20.612;2023-02-28T00:40:55;101174.19;;;2.38;76.09
75697;BME280;64312;44.738;20.612;2023-02-28T00:43:21;101261.75;;;2.97;76.80
75697;BME280;64312;44.738;20.612;2023-02-28T00:45:47;101235.25;;;2.73;76.42
75697;BME280;64312;44.738;20.612;2023-02-28T00:48:13;101110.63;;;2.01;75.94
75697;BME280;64312;44.738;20.612;2023-02-28T00:50:38;101189.56;;;2.46;76.71
75697;BME280;64312;44.738;20.612;2023-02-28T00:53:04;101187.47;;;2.38;76.56
75697;BME280;64312;44.738;20.612;2023-02-28T00:55:29;101208.66;;;2.62;76.23
75697;BME280;64312;44.738;20.612;2023-02-28T00:57:55;100955.81;;;1.08;76.28
75697;BME280;64312;44.738;20.612;2023-02-28T01:00:20;101235.75;;;2.78;76.74
75697;BME280;64312;44.738;20.612;2023-02-28T01:02:49;101104.72;;;1.74;76.68
75697;BME280;64312;44.738;20.612;2023-02-28T01:05:14;101164.88;;;2.32;76.87
75697;BME280;64312;44.738;20.612;2023-02-28T01:07:40;101251.34;;;2.71;77.05
75697;BME280;64312;44.738;20.612;2023-02-28T01:10:06;101292.69;;;2.87;77.63
75697;BME280;64312;44.738;20.612;2023-02-28T01:12:32;101268.84;;;2.74;77.04
75697;BME280;64312;44.738;20.612;2023-02-28T01:14:57;101071.19;;;1.61;77.13
75697;BME280;64312;44.738;20.612;2023-02-28T01:17:23;101218.28;;;2.40;77.74
75697;BME280;64312;44.738;20.612;2023-02-28T01:19:49;101031.34;;;1.26;76.64
75697;BME280;64312;44.738;20.612;2023-02-28T01:22:14;101200.84;;;2.25;76.94
75697;BME280;64312;44.738;20.612;2023-02-28T01:24:41;101257.38;;;2.74;77.21
75697;BME280;64312;44.738;20.612;2023-02-28T01:27:07;101303.19;;;2.88;76.94
75697;BME280;64312;44.738;20.612;2023-02-28T01:29:32;101274.78;;;2.89;77.62
75697;BME280;64312;44.738;20.612;2023-02-28T01:31:58;101271.19;;;2.90;76.67
75697;BME280;64312;44.738;20.612;2023-02-28T01:34:24;101154.56;;;2.16;76.81
75697;BME280;64312;44.738;20.612;2023-02-28T01:36:50;101149.72;;;2.10;76.81
75697;BME280;64312;44.738;20.612;2023-02-28T01:39:17;101249.16;;;2.77;76.43
75697;BME280;64312;44.738;20.612;2023-02-28T01:41:44;101201.03;;;2.46;76.75
75697;BME280;64312;44.738;20.612;2023-02-28T01:47:13;101247.94;;;2.69;76.81
75697;BME280;64312;44.738;20.612;2023-02-28T01:49:39;101145.03;;;2.14;76.21
75697;BME280;64312;44.738;20.612;2023-02-28T01:52:05;101213.59;;;2.55;77.33
75697;BME280;64312;44.738;20.612;2023-02-28T01:54:33;101197.16;;;2.39;77.28
75697;BME280;64312;44.738;20.612;2023-02-28T01:57:07;101269.22;;;2.81;77.48
75697;BME280;64312;44.738;20.612;2023-02-28T01:59:39;101238.25;;;2.57;77.39
75697;BME280;64312;44.738;20.612;2023-02-28T02:02:10;101284.09;;;2.72;77.72
75697;BME280;64312;44.738;20.612;2023-02-28T02:04:45;101242.88;;;2.66;77.11
75697;BME280;64312;44.738;20.612;2023-02-28T02:07:16;101257.72;;;2.69;77.54
75697;BME280;64312;44.738;20.612;2023-02-28T02:09:44;101285.56;;;2.87;77.29
75697;BME280;64312;44.738;20.612;2023-02-28T02:15:16;101124.69;;;1.90;77.34
75697;BME280;64312;44.738;20.612;2023-02-28T02:17:52;101219.50;;;2.48;77.50
75697;BME280;64312;44.738;20.612;2023-02-28T02:25:56;101262.19;;;2.68;77.57
75697;BME280;64312;44.738;20.612;2023-02-28T02:29:27;101289.06;;;2.88;77.27
75697;BME280;64312;44.738;20.612;2023-02-28T02:39:38;101287.63;;;2.84;77.02
75697;BME280;64312;44.738;20.612;2023-02-28T02:42:13;101079.97;;;1.62;77.43
75697;BME280;64312;44.738;20.612;2023-02-28T02:44:46;101160.81;;;2.04;76.77
75697;BME280;64312;44.738;20.612;2023-02-28T02:47:18;101294.97;;;2.80;76.98
75697;BME280;64312;44.738;20.612;2023-02-28T02:49:52;101262.06;;;2.70;77.11
75697;BME280;64312;44.738;20.612;2023-02-28T02:52:24;101226.38;;;2.50;77.01
75697;BME280;64312;44.738;20.612;2023-02-28T02:54:54;101191.34;;;2.34;77.54
75697;BME280;64312;44.738;20.612;2023-02-28T02:57:31;101273.34;;;2.85;76.77
75697;BME280;64312;44.738;20.612;2023-02-28T02:59:58;101274.78;;;2.89;76.86
75697;BME280;64312;44.738;20.612;2023-02-28T03:02:27;101092.19;;;1.76;77.37
75697;BME280;64312;44.738;20.612;2023-02-28T03:05:03;101279.88;;;2.92;77.23
75697;BME280;64312;44.738;20.612;2023-02-28T03:07:30;101183.72;;;2.29;77.14
75697;BME280;64312;44.738;20.612;2023-02-28T03:09:56;101072.28;;;1.70;77.39
75697;BME280;64312;44.738;20.612;2023-02-28T03:12:31;101247.94;;;2.69;76.74
75697;BME280;64312;44.738;20.612;2023-02-28T03:15:22;101285.69;;;2.97;76.72
75697;BME280;64312;44.738;20.612;2023-02-28T03:18:18;101265.47;;;2.83;76.91
75697;BME280;64312;44.738;20.612;2023-02-28T03:23:54;101213.47;;;2.57;77.23
75697;BME280;64312;44.738;20.612;2023-02-28T03:26:23;101197.16;;;2.50;77.25
75697;BME280;64312;44.738;20.612;2023-02-28T03:29:02;101303.09;;;3.01;76.67
75697;BME280;64312;44.738;20.612;2023-02-28T03:34:01;101185.06;;;2.35;77.08
75697;BME280;64312;44.738;20.612;2023-02-28T03:36:33;101206.34;;;2.46;76.40
75697;BME280;64312;44.738;20.612;2023-02-28T03:39:10;101278.19;;;2.91;76.38
75697;BME280;64312;44.738;20.612;2023-02-28T03:41:54;101295.72;;;2.93;77.05
75697;BME280;64312;44.738;20.612;2023-02-28T03:44:25;101306.59;;;2.90;76.86
75697;BME280;64312;44.738;20.612;2023-02-28T03:47:04;101271.97;;;2.68;76.22
75697;BME280;64312;44.738;20.612;2023-02-28T03:52:38;101218.03;;;2.43;77.35
75697;BME280;64312;44.738;20.612;2023-02-28T03:55:09;101236.53;;;2.56;76.43
75697;BME280;64312;44.738;20.612;2023-02-28T03:57:45;101230.84;;;2.38;76.69
75697;BME280;64312;44.738;20.612;2023-02-28T04:00:20;101247.19;;;2.56;76.69
75697;BME280;64312;44.738;20.612;2023-02-28T04:02:46;101259.38;;;2.48;76.15
75697;BME280;64312;44.738;20.612;2023-02-28T04:05:19;101059.38;;;1.42;76.33
75697;BME280;64312;44.738;20.612;2023-02-28T04:07:44;101202.56;;;2.26;76.30
75697;BME280;64312;44.738;20.612;2023-02-28T04:10:12;101089.13;;;1.58;76.53
75697;BME280;64312;44.738;20.612;2023-02-28T04:12:38;101269.91;;;2.60;76.77
75697;BME280;64312;44.738;20.612;2023-02-28T04:15:04;101299.41;;;2.68;77.33
75697;BME280;64312;44.738;20.612;2023-02-28T04:17:30;101284.81;;;2.74;76.78
75697;BME280;64312;44.738;20.612;2023-02-28T04:19:56;101207.03;;;2.26;77.23
75697;BME280;64312;44.738;20.612;2023-02-28T04:22:23;101156.94;;;1.97;76.84
75697;BME280;64312;44.738;20.612;2023-02-28T04:24:51;101077.63;;;1.46;76.51
75697;BME280;64312;44.738;20.612;2023-02-28T04:27:18;101278.72;;;2.61;76.95
75697;BME280;64312;44.738;20.612;2023-02-28T04:29:44;101205.94;;;2.28;77.33
75697;BME280;64312;44.738;20.612;2023-02-28T04:32:10;101064.81;;;1.40;76.83
75697;BME280;64312;44.738;20.612;2023-02-28T04:34:36;101246.81;;;2.50;77.48
75697;BME280;64312;44.738;20.612;2023-02-28T04:37:02;101268.94;;;2.61;77.32
75697;BME280;64312;44.738;20.612;2023-02-28T04:39:28;101281.94;;;2.77;77.50
75697;BME280;64312;44.738;20.612;2023-02-28T04:41:55;101251.78;;;2.54;77.68
75697;BME280;64312;44.738;20.612;2023-02-28T04:44:22;101283.25;;;2.71;76.71
75697;BME280;64312;44.738;20.612;2023-02-28T04:46:48;101143.53;;;1.87;76.94
75697;BME280;64312;44.738;20.612;2023-02-28T04:49:14;101318.09;;;2.91;77.91
75697;BME280;64312;44.738;20.612;2023-02-28T04:51:40;101284.06;;;2.61;77.31
75697;BME280;64312;44.738;20.612;2023-02-28T04:54:07;101325.59;;;2.97;78.25
75697;BME280;64312;44.738;20.612;2023-02-28T04:56:33;101283.38;;;2.81;78.02
75697;BME280;64312;44.738;20.612;2023-02-28T04:58:59;101320.88;;;3.01;77.94
75697;BME280;64312;44.738;20.612;2023-02-28T05:01:33;101238.81;;;2.50;76.94
75697;BME280;64312;44.738;20.612;2023-02-28T05:04:00;101315.06;;;2.95;77.77
75697;BME280;64312;44.738;20.612;2023-02-28T05:06:28;101022.03;;;1.21;78.13
75697;BME280;64312;44.738;20.612;2023-02-28T05:08:55;101223.09;;;2.35;77.49
75697;BME280;64312;44.738;20.612;2023-02-28T05:11:32;101321.34;;;2.94;77.62
75697;BME280;64312;44.738;20.612;2023-02-28T05:14:03;101282.41;;;2.82;77.07
75697;BME280;64312;44.738;20.612;2023-02-28T05:16:29;101124.66;;;1.79;77.58
75697;BME280;64312;44.738;20.612;2023-02-28T05:18:56;101315.44;;;3.02;77.60
75697;BME280;64312;44.738;20.612;2023-02-28T05:21:36;100983.38;;;0.94;77.58
75697;BME280;64312;44.738;20.612;2023-02-28T05:24:05;101295.97;;;2.90;78.08
75697;BME280;64312;44.738;20.612;2023-02-28T05:26:33;101125.16;;;1.84;77.26
75697;BME280;64312;44.738;20.612;2023-02-28T05:28:59;101313.50;;;2.93;77.83
75697;BME280;64312;44.738;20.612;2023-02-28T05:31:25;101247.91;;;2.47;77.44
75697;BME280;64312;44.738;20.612;2023-02-28T05:33:51;101083.22;;;1.30;76.67
75697;BME280;64312;44.738;20.612;2023-02-28T05:36:16;101282.28;;;2.37;77.73
75697;BME280;64312;44.738;20.612;2023-02-28T05:38:42;101345.91;;;2.63;77.75
75697;BME280;64312;44.738;20.612;2023-02-28T05:41:09;101230.50;;;1.84;78.30
75697;BME280;64312;44.738;20.612;2023-02-28T05:43:36;101095.94;;;1.01;78.92
75697;BME280;64312;44.738;20.612;2023-02-28T05:46:04;101325.75;;;2.36;78.80
75697;BME280;64312;44.738;20.612;2023-02-28T05:48:31;101331.91;;;2.37;79.36
75697;BME280;64312;44.738;20.612;2023-02-28T05:50:57;101348.22;;;2.32;79.99
75697;BME280;64312;44.738;20.612;2023-02-28T05:53:23;101271.81;;;1.88;79.62
75697;BME280;64312;44.738;20.612;2023-02-28T05:55:49;101345.00;;;2.16;80.40
75697;BME280;64312;44.738;20.612;2023-02-28T05:58:15;101343.06;;;2.18;80.50
75697;BME280;64312;44.738;20.612;2023-02-28T06:00:40;101374.94;;;2.18;81.06
75697;BME280;64312;44.738;20.612;2023-02-28T06:03:06;101233.94;;;1.49;80.85
75697;BME280;64312;44.738;20.612;2023-02-28T06:05:32;101277.66;;;1.56;80.99
75697;BME280;64312;44.738;20.612;2023-02-28T06:07:58;101308.66;;;1.80;80.92
75697;BME280;64312;44.738;20.612;2023-02-28T06:10:24;101356.06;;;2.10;81.45
75697;BME280;64312;44.738;20.612;2023-02-28T06:12:50;101335.06;;;2.07;82.25
75697;BME280;64312;44.738;20.612;2023-02-28T06:15:15;101387.19;;;2.32;82.30
75697;BME280;64312;44.738;20.612;2023-02-28T06:17:42;101173.00;;;1.24;81.58
75697;BME280;64312;44.738;20.612;2023-02-28T06:20:09;101361.16;;;2.37;81.05
75697;BME280;64312;44.738;20.612;2023-02-28T06:22:36;101377.84;;;2.39;81.45
75697;BME280;64312;44.738;20.612;2023-02-28T06:25:03;101179.69;;;1.29;82.19
75697;BME280;64312;44.738;20.612;2023-02-28T06:27:30;101364.66;;;2.37;82.14
75697;BME280;64312;44.738;20.612;2023-02-28T06:29:56;101265.78;;;1.73;81.74
75697;BME280;64312;44.738;20.612;2023-02-28T06:32:22;101285.28;;;1.85;81.87
75697;BME280;64312;44.738;20.612;2023-02-28T06:34:48;101280.09;;;1.83;81.91
75697;BME280;64312;44.738;20.612;2023-02-28T06:37:14;101176.72;;;1.21;80.95
75697;BME280;64312;44.738;20.612;2023-02-28T06:39:39;101380.56;;;2.26;81.51
75697;BME280;64312;44.738;20.612;2023-02-28T06:42:05;101359.19;;;1.91;81.89
75697;BME280;64312;44.738;20.612;2023-02-28T06:44:31;101226.47;;;1.30;82.24
75697;BME280;64312;44.738;20.612;2023-02-28T06:47:02;101225.78;;;1.40;81.83
75697;BME280;64312;44.738;20.612;2023-02-28T06:49:29;101379.75;;;2.37;82.45
75697;BME280;64312;44.738;20.612;2023-02-28T06:51:55;101315.63;;;2.06;82.79
75697;BME280;64312;44.738;20.612;2023-02-28T06:54:21;101065.53;;;0.58;81.26
75697;BME280;64312;44.738;20.612;2023-02-28T06:56:46;101211.41;;;1.31;80.93
75697;BME280;64312;44.738;20.612;2023-02-28T06:59:12;101399.94;;;2.39;81.08
75697;BME280;64312;44.738;20.612;2023-02-28T07:01:39;101322.88;;;1.92;81.41
75697;BME280;64312;44.738;20.612;2023-02-28T07:04:05;101360.75;;;2.06;80.44
75697;BME280;64312;44.738;20.612;2023-02-28T07:06:31;101291.47;;;1.49;80.68
75697;BME280;64312;44.738;20.612;2023-02-28T07:08:58;101400.84;;;2.27;80.83
75697;BME280;64312;44.738;20.612;2023-02-28T07:11:26;101389.53;;;2.36;81.66
75697;BME280;64312;44.738;20.612;2023-02-28T07:13:53;101320.97;;;1.94;80.93
75697;BME280;64312;44.738;20.612;2023-02-28T07:16:19;101405.34;;;2.38;80.48
75697;BME280;64312;44.738;20.612;2023-02-28T07:18:45;101374.59;;;2.23;81.01
75697;BME280;64312;44.738;20.612;2023-02-28T07:21:11;101313.00;;;1.94;80.53
75697;BME280;64312;44.738;20.612;2023-02-28T07:23:37;101156.00;;;0.90;80.47
75697;BME280;64312;44.738;20.612;2023-02-28T07:26:04;101357.31;;;2.17;80.76
75697;BME280;64312;44.738;20.612;2023-02-28T07:28:30;101175.66;;;1.24;80.60
75697;BME280;64312;44.738;20.612;2023-02-28T07:30:56;101351.41;;;2.49;80.72
75697;BME280;64312;44.738;20.612;2023-02-28T07:33:22;101049.47;;;0.85;79.91
75697;BME280;64312;44.738;20.612;2023-02-28T07:35:49;101277.09;;;2.36;80.36
75697;BME280;64312;44.738;20.612;2023-02-28T07:38:15;101371.28;;;3.02;80.19
75697;BME280;64312;44.738;20.612;2023-02-28T07:40:41;101376.13;;;3.08;80.03
75697;BME280;64312;44.738;20.612;2023-02-28T07:43:06;101374.22;;;3.10;79.85
75697;BME280;64312;44.738;20.612;2023-02-28T07:45:32;101296.28;;;2.75;79.82
75697;BME280;64312;44.738;20.612;2023-02-28T07:47:59;101386.84;;;3.31;79.58
75697;BME280;64312;44.738;20.612;2023-02-28T07:50:26;101390.22;;;3.33;79.05
75697;BME280;64312;44.738;20.612;2023-02-28T07:53:00;101325.06;;;2.81;77.48
75697;BME280;64312;44.738;20.612;2023-02-28T07:55:25;101158.03;;;1.95;77.50
75697;BME280;64312;44.738;20.612;2023-02-28T07:57:52;101136.75;;;1.83;78.26
75697;BME280;64312;44.738;20.612;2023-02-28T08:00:17;101327.63;;;2.93;78.58
75697;BME280;64312;44.738;20.612;2023-02-28T08:02:43;101351.72;;;3.03;76.82
75697;BME280;64312;44.738;20.612;2023-02-28T08:05:09;101375.22;;;3.32;77.32
75697;BME280;64312;44.738;20.612;2023-02-28T08:07:36;101335.50;;;3.06;76.29
75697;BME280;64312;44.738;20.612;2023-02-28T08:10:01;101391.22;;;3.43;77.53
75697;BME280;64312;44.738;20.612;2023-02-28T08:12:27;101373.16;;;3.46;76.63
75697;BME280;64312;44.738;20.612;2023-02-28T08:14:53;101350.66;;;3.39;76.29
75697;BME280;64312;44.738;20.612;2023-02-28T08:17:19;101384.06;;;3.43;76.52
75697;BME280;64312;44.738;20.612;2023-02-28T08:19:45;101297.53;;;2.93;76.10
75697;BME280;64312;44.738;20.612;2023-02-28T08:22:11;101355.03;;;3.29;76.63
75697;BME280;64312;44.738;20.612;2023-02-28T08:24:37;101278.53;;;2.86;77.00
75697;BME280;64312;44.738;20.612;2023-02-28T08:27:03;101357.31;;;3.22;76.62
75697;BME280;64312;44.738;20.612;2023-02-28T08:29:28;101329.34;;;3.28;77.30
75697;BME280;64312;44.738;20.612;2023-02-28T08:31:55;101344.63;;;3.37;76.30
75697;BME280;64312;44.738;20.612;2023-02-28T08:34:22;101302.25;;;3.01;76.31
75697;BME280;64312;44.738;20.612;2023-02-28T08:36:48;101393.50;;;3.47;77.13
75697;BME280;64312;44.738;20.612;2023-02-28T08:39:14;101399.28;;;3.41;77.36
75697;BME280;64312;44.738;20.612;2023-02-28T08:41:39;101337.97;;;3.09;77.84
75697;BME280;64312;44.738;20.612;2023-02-28T08:44:06;101323.91;;;3.07;77.77
75697;BME280;64312;44.738;20.612;2023-02-28T08:46:32;101374.84;;;3.47;78.44
75697;BME280;64312;44.738;20.612;2023-02-28T08:48:57;101398.63;;;3.62;77.51
75697;BME280;64312;44.738;20.612;2023-02-28T08:51:25;101404.03;;;3.71;78.20
75697;BME280;64312;44.738;20.612;2023-02-28T08:53:57;101371.97;;;3.73;77.19
75697;BME280;64312;44.738;20.612;2023-02-28T08:56:23;101363.38;;;3.69;77.31
75697;BME280;64312;44.738;20.612;2023-02-28T08:58:49;101377.69;;;3.68;77.63
75697;BME280;64312;44.738;20.612;2023-02-28T09:01:16;101404.06;;;3.94;77.81
75697;BME280;64312;44.738;20.612;2023-02-28T09:03:43;101400.78;;;3.90;76.84
75697;BME280;64312;44.738;20.612;2023-02-28T09:06:10;101244.34;;;2.93;76.23
75697;BME280;64312;44.738;20.612;2023-02-28T09:08:36;101243.16;;;2.97;77.36
75697;BME280;64312;44.738;20.612;2023-02-28T09:11:02;101373.03;;;3.93;77.84
75697;BME280;64312;44.738;20.612;2023-02-28T09:13:29;101381.63;;;4.07;76.53
75697;BME280;64312;44.738;20.612;2023-02-28T09:15:57;101385.38;;;4.05;76.58
75697;BME280;64312;44.738;20.612;2023-02-28T09:18:23;101361.28;;;3.95;76.73
75697;BME280;64312;44.738;20.612;2023-02-28T09:20:49;101314.84;;;3.77;76.37
75697;BME280;64312;44.738;20.612;2023-02-28T09:23:15;101164.81;;;2.79;75.29
75697;BME280;64312;44.738;20.612;2023-02-28T09:25:53;101402.19;;;4.05;76.00
75697;BME280;64312;44.738;20.612;2023-02-28T09:28:20;101327.16;;;3.78;74.76
75697;BME280;64312;44.738;20.612;2023-02-28T09:30:48;101201.53;;;2.96;75.57
75697;BME280;64312;44.738;20.612;2023-02-28T09:33:15;101393.63;;;4.02;76.45
75697;BME280;64312;44.738;20.612;2023-02-28T09:35:41;101214.72;;;3.20;76.02
75697;BME280;64312;44.738;20.612;2023-02-28T09:38:08;101352.47;;;3.95;76.16
75697;BME280;64312;44.738;20.612;2023-02-28T09:40:47;101383.03;;;4.23;75.66
75697;BME280;64312;44.738;20.612;2023-02-28T09:43:15;101195.38;;;3.07;75.22
75697;BME280;64312;44.738;20.612;2023-02-28T09:45:50;101357.66;;;4.07;74.72
75697;BME280;64312;44.738;20.612;2023-02-28T09:48:21;101410.25;;;4.38;75.12
75697;BME280;64312;44.738;20.612;2023-02-28T09:50:57;101388.16;;;4.15;75.97
75697;BME280;64312;44.738;20.612;2023-02-28T09:53:32;101417.91;;;4.31;76.15
75697;BME280;64312;44.738;20.612;2023-02-28T09:56:07;101416.97;;;4.32;75.95
75697;BME280;64312;44.738;20.612;2023-02-28T09:58:42;101373.34;;;4.22;75.96
75697;BME280;64312;44.738;20.612;2023-02-28T10:06:30;101396.22;;;4.68;76.21
75697;BME280;64312;44.738;20.612;2023-02-28T10:09:16;101389.53;;;4.73;76.46
75697;BME280;64312;44.738;20.612;2023-02-28T10:11:43;101374.91;;;4.68;76.98
75697;BME280;64312;44.738;20.612;2023-02-28T10:14:22;101365.56;;;4.62;75.89
75697;BME280;64312;44.738;20.612;2023-02-28T10:17:11;101378.88;;;4.73;76.74
75697;BME280;64312;44.738;20.612;2023-02-28T10:22:20;101342.50;;;4.72;76.25
75697;BME280;64312;44.738;20.612;2023-02-28T10:24:49;101403.38;;;4.99;75.75
75697;BME280;64312;44.738;20.612;2023-02-28T10:27:20;101392.22;;;4.94;75.20
75697;BME280;64312;44.738;20.612;2023-02-28T10:29:49;101332.41;;;4.55;75.90
75697;BME280;64312;44.738;20.612;2023-02-28T10:32:18;101392.34;;;4.93;75.30
75697;BME280;64312;44.738;20.612;2023-02-28T10:34:44;101149.56;;;3.46;74.88
75697;BME280;64312;44.738;20.612;2023-02-28T10:37:16;101145.00;;;3.37;73.87
75697;BME280;64312;44.738;20.612;2023-02-28T10:39:46;101212.44;;;3.70;74.87
75697;BME280;64312;44.738;20.612;2023-02-28T10:42:27;101186.59;;;3.61;75.16
75697;BME280;64312;44.738;20.612;2023-02-28T10:47:34;101149.22;;;3.40;73.79
75697;BME280;64312;44.738;20.612;2023-02-28T10:50:03;101368.41;;;4.81;74.70
75697;BME280;64312;44.738;20.612;2023-02-28T10:52:41;101369.97;;;4.84;73.97
75697;BME280;64312;44.738;20.612;2023-02-28T10:55:22;101377.53;;;5.00;74.31
75697;BME280;64312;44.738;20.612;2023-02-28T10:57:49;101246.22;;;4.33;74.29
75697;BME280;64312;44.738;20.612;2023-02-28T11:00:24;101229.91;;;4.27;74.12
75697;BME280;64312;44.738;20.612;2023-02-28T11:02:51;101341.72;;;5.02;71.96
75697;BME280;64312;44.738;20.612;2023-02-28T11:05:31;101339.69;;;4.95;73.20
75697;BME280;64312;44.738;20.612;2023-02-28T11:08:18;101364.50;;;5.06;73.59
75697;BME280;64312;44.738;20.612;2023-02-28T11:10:46;101381.22;;;4.87;74.04
75697;BME280;64312;44.738;20.612;2023-02-28T11:13:20;101338.00;;;4.73;73.77
75697;BME280;64312;44.738;20.612;2023-02-28T11:15:53;101333.56;;;4.83;73.80
75697;BME280;64312;44.738;20.612;2023-02-28T11:18:28;101353.50;;;5.00;73.50
75697;BME280;64312;44.738;20.612;2023-02-28T11:20:58;101363.00;;;4.93;73.99
75697;BME280;64312;44.738;20.612;2023-02-28T11:23:26;101375.97;;;4.97;74.04
75697;BME280;64312;44.738;20.612;2023-02-28T11:25:56;101316.06;;;4.69;72.33
75697;BME280;64312;44.738;20.612;2023-02-28T11:28:28;101376.03;;;4.86;73.08
75697;BME280;64312;44.738;20.612;2023-02-28T11:33:49;101172.16;;;3.63;73.53
75697;BME280;64312;44.738;20.612;2023-02-28T11:38:51;101362.28;;;4.38;74.10
75697;BME280;64312;44.738;20.612;2023-02-28T11:41:36;101347.19;;;4.27;74.52
75697;BME280;64312;44.738;20.612;2023-02-28T11:55:21;101341.00;;;4.58;73.62
75697;BME280;64312;44.738;20.612;2023-02-28T12:07:40;101364.22;;;4.68;72.57
75697;BME280;64312;44.738;20.612;2023-02-28T12:10:20;101393.66;;;4.45;73.79
75697;BME280;64312;44.738;20.612;2023-02-28T12:13:12;101369.56;;;4.35;74.58
75697;BME280;64312;44.738;20.612;2023-02-28T12:15:51;101359.88;;;4.34;76.09
75697;BME280;64312;44.738;20.612;2023-02-28T12:20:57;101313.25;;;4.18;75.72
75697;BME280;64312;44.738;20.612;2023-02-28T12:28:54;101187.59;;;3.37;76.09
75697;BME280;64312;44.738;20.612;2023-02-28T12:31:28;101196.56;;;3.36;76.26
75697;BME280;64312;44.738;20.612;2023-02-28T12:34:24;101355.06;;;4.17;76.13
75697;BME280;64312;44.738;20.612;2023-02-28T12:36:53;101297.53;;;3.71;77.50
75697;BME280;64312;44.738;20.612;2023-02-28T12:39:28;101315.66;;;4.00;77.24
75697;BME280;64312;44.738;20.612;2023-02-28T12:44:40;101315.44;;;3.80;77.73
75697;BME280;64312;44.738;20.612;2023-02-28T12:47:13;101317.81;;;4.06;78.66
75697;BME280;64312;44.738;20.612;2023-02-28T12:49:50;101326.72;;;4.16;79.08
75697;BME280;64312;44.738;20.612;2023-02-28T12:52:27;101314.66;;;4.01;79.37
75697;BME280;64312;44.738;20.612;2023-02-28T12:55:00;101323.66;;;3.89;78.75
75697;BME280;64312;44.738;20.612;2023-02-28T13:00:02;101350.53;;;3.86;80.05
75697;BME280;64312;44.738;20.612;2023-02-28T13:03:21;101337.69;;;3.79;80.62
75697;BME280;64312;44.738;20.612;2023-02-28T13:14:01;101340.34;;;4.02;80.58
75697;BME280;64312;44.738;20.612;2023-02-28T13:16:28;101319.03;;;3.91;79.67
75697;BME280;64312;44.738;20.612;2023-02-28T13:19:08;101322.69;;;3.90;79.44
75697;BME280;64312;44.738;20.612;2023-02-28T13:21:43;101289.44;;;3.62;80.16
75697;BME280;64312;44.738;20.612;2023-02-28T13:24:10;101353.53;;;3.92;80.31
75697;BME280;64312;44.738;20.612;2023-02-28T13:40:06;101340.47;;;3.89;81.18
75697;BME280;64312;44.738;20.612;2023-02-28T13:42:37;101341.59;;;3.87;80.77
75697;BME280;64312;44.738;20.612;2023-02-28T13:47:41;101331.66;;;3.77;81.04
75697;BME280;64312;44.738;20.612;2023-02-28T13:55:27;101172.03;;;2.88;81.43
75697;BME280;64312;44.738;20.612;2023-02-28T14:06:59;101310.13;;;3.58;81.44
75697;BME280;64312;44.738;20.612;2023-02-28T14:09:34;101331.31;;;3.71;82.11
75697;BME280;64312;44.738;20.612;2023-02-28T14:17:55;101169.03;;;3.04;82.33
75697;BME280;64312;44.738;20.612;2023-02-28T14:20:22;101332.56;;;3.99;82.32
75697;BME280;64312;44.738;20.612;2023-02-28T14:23:02;101316.25;;;3.92;82.15
75697;BME280;64312;44.738;20.612;2023-02-28T14:26:47;101332.06;;;4.05;81.50
75697;BME280;64312;44.738;20.612;2023-02-28T14:31:23;101312.19;;;3.66;81.26
75697;BME280;64312;44.738;20.612;2023-02-28T14:34:05;101311.31;;;3.65;81.49
75697;BME280;64312;44.738;20.612;2023-02-28T14:36:40;101170.63;;;2.84;82.35
75697;BME280;64312;44.738;20.612;2023-02-28T14:39:12;101335.72;;;3.93;82.07
75697;BME280;64312;44.738;20.612;2023-02-28T14:41:41;101322.81;;;3.88;81.88
75697;BME280;64312;44.738;20.612;2023-02-28T14:44:27;101120.09;;;2.84;82.05
75697;BME280;64312;44.738;20.612;2023-02-28T14:46:55;101303.03;;;4.02;81.80
75697;BME280;64312;44.738;20.612;2023-02-28T14:49:35;101299.66;;;4.00;81.19
75697;BME280;64312;44.738;20.612;2023-02-28T14:52:21;101316.09;;;4.05;80.82
75697;BME280;64312;44.738;20.612;2023-02-28T14:54:55;101311.94;;;4.12;80.64
75697;BME280;64312;44.738;20.612;2023-02-28T14:57:23;101173.22;;;3.29;80.66
75697;BME280;64312;44.738;20.612;2023-02-28T14:59:58;101331.06;;;4.28;81.25
75697;BME280;64312;44.738;20.612;2023-02-28T15:02:25;101331.66;;;4.32;81.69
75697;BME280;64312;44.738;20.612;2023-02-28T15:04:55;101314.63;;;4.12;81.34
75697;BME280;64312;44.738;20.612;2023-02-28T15:07:22;101307.19;;;4.27;80.96
75697;BME280;64312;44.738;20.612;2023-02-28T15:12:39;101250.59;;;4.02;80.35